Grandview, New York
Current Conditions -  °F | °C
As of 6:56 PM on Monday 24 Nov 2014 (Local Time) from KHPN Reporting Station
Clear Clear  
Wind Chill: 58°   Ceiling: Unl
Heat Index: 58°   Visibility: 9mi
Dew Point: 54°   Wind: 7mph
Humidity: 87%   Direction: 160°SSE
Pressure: 29.68"   Gusts: NA
Location:  41.0938°N, 73.9254°W
Report Text: KHPN 242356Z 16006KT 9SM CLR 14/12 A2968 RMK AO2 SLP048 T01440122 10178 20128 51030
Loading
Personal Weather Stations






























Interactive Weather Map New forecast layout! Learn more

10-Day Weather Forecast

Advertisements
Track Severe Weather on mobile